Time;durP1;ratioP1;P1;durP2;ratioP2;P2;SDS_P1;SDS_P2;PMS_P1;PMS_P2;Temp;Humidity;BMP_temperature;BMP_pressure;BME280_temperature;BME280_humidity;BME280_pressure;Samples;Min_cycle;Max_cycle;Signal;HPM_P1;HPM_P2
2022/06/24 00:00:37;;;;;;;1.63;1.42;;;24.70;36.10;;;22.88;37.29;100771.88;12239308;19;20031;-81
2022/06/24 00:04:39;;;;;;;1.60;1.50;;;24.90;36.30;;;22.94;37.28;100771.22;12242962;19;20027;-81
2022/06/24 00:08:58;;;;;;;3.38;1.60;;;24.70;36.00;;;23.13;37.31;100801.25;12238764;19;20023;-81
2022/06/24 00:13:00;;;;;;;3.67;1.70;;;24.60;36.20;;;23.09;36.95;100787.44;12245098;19;20483;-80
2022/06/24 00:17:10;;;;;;;3.92;1.60;;;24.70;36.30;;;23.23;37.18;100790.44;12238649;19;20023;-81
2022/06/24 00:21:13;;;;;;;2.10;1.70;;;24.70;36.20;;;23.28;37.02;100796.09;12239676;19;20014;-80
2022/06/24 00:25:21;;;;;;;2.40;1.73;;;24.80;36.20;;;23.41;37.46;100807.94;12241590;19;20018;-80
2022/06/24 00:29:30;;;;;;;1.50;1.40;;;24.80;36.20;;;23.14;37.21;100749.63;12241746;19;20007;-80
2022/06/24 00:33:35;;;;;;;2.13;1.52;;;24.90;36.30;;;23.29;37.25;100773.78;12239894;19;20359;-80
2022/06/24 00:37:39;;;;;;;1.60;1.50;;;24.90;36.20;;;23.39;37.06;100801.94;12242397;19;20022;-81
2022/06/24 00:41:41;;;;;;;3.13;1.83;;;24.90;36.20;;;23.33;37.38;100807.06;12237187;19;20811;-80
2022/06/24 00:45:48;;;;;;;1.77;1.67;;;24.90;36.10;;;23.12;37.80;100796.91;12240025;19;20085;-80
2022/06/24 00:49:53;;;;;;;1.80;1.70;;;24.80;36.20;;;22.87;37.95;100780.88;12236267;19;20021;-81
2022/06/24 00:53:56;;;;;;;1.55;1.45;;;24.70;36.40;;;22.63;37.79;100752.38;12239641;19;20395;-80
2022/06/24 00:58:00;;;;;;;3.20;1.65;;;24.60;36.30;;;22.69;38.04;100782.81;12238262;19;20010;-80
2022/06/24 01:02:06;;;;;;;4.28;1.55;;;24.50;36.30;;;22.49;38.12;100755.63;12229017;19;20014;-80
2022/06/24 01:06:11;;;;;;;2.70;1.48;;;24.40;36.60;;;22.51;38.12;100791.72;12235565;19;20031;-80
2022/06/24 01:10:13;;;;;;;2.35;1.80;;;24.30;36.80;;;22.27;38.21;100757.06;12228450;19;20019;-80
2022/06/24 01:14:14;;;;;;;1.48;1.38;;;24.20;36.60;;;22.39;37.91;100784.22;12233803;19;20041;-80
2022/06/24 01:18:16;;;;;;;2.53;1.90;;;24.20;36.60;;;22.33;38.26;100787.50;12235425;19;20479;-80
2022/06/24 01:22:22;;;;;;;1.98;1.52;;;24.20;36.80;;;22.27;38.50;100781.81;12240526;19;20088;-80
2022/06/24 01:26:24;;;;;;;1.70;1.60;;;24.10;36.80;;;22.23;38.08;100779.66;12239727;19;20522;-80
2022/06/24 01:30:27;;;;;;;2.13;1.98;;;24.00;36.80;;;21.80;38.63;100734.34;12236779;19;20029;-81
2022/06/24 01:34:29;;;;;;;1.65;1.55;;;23.90;37.40;;;21.72;38.40;100738.81;12236992;19;20021;-81
2022/06/24 01:38:31;;;;;;;2.28;1.55;;;23.90;37.10;;;21.88;38.84;100773.47;12234755;19;20007;-80
2022/06/24 01:42:32;;;;;;;2.38;1.50;;;23.80;37.20;;;21.74;38.66;100758.06;12239515;19;20038;-80
2022/06/24 01:46:35;;;;;;;2.40;1.77;;;23.70;37.10;;;21.70;39.12;100762.03;12237837;19;20015;-80
2022/06/24 01:50:36;;;;;;;1.80;1.67;;;23.80;37.30;;;21.72;38.81;100776.84;12237430;19;20014;-80
2022/06/24 01:54:38;;;;;;;1.70;1.60;;;23.60;37.30;;;21.71;39.31;100777.84;12234449;19;20018;-80
2022/06/24 01:58:40;;;;;;;1.73;1.63;;;23.50;37.40;;;21.43;39.29;100745.25;12225957;19;20025;-80
2022/06/24 02:02:41;;;;;;;2.90;1.90;;;23.40;37.60;;;21.45;39.13;100755.72;12238129;19;20491;-80
2022/06/24 02:06:43;;;;;;;1.98;1.63;;;23.30;37.60;;;21.28;39.63;100744.09;12235782;19;20018;-80
2022/06/24 02:15:06;;;;;;;2.75;1.90;;;23.20;37.60;;;21.09;39.66;100735.31;12243536;19;20019;-80
2022/06/24 02:19:08;;;;;;;2.35;2.00;;;23.10;37.70;;;21.28;39.96;100783.94;12248445;19;20258;-80
2022/06/24 02:23:11;;;;;;;2.03;1.92;;;23.10;37.70;;;21.26;39.77;100793.91;12249910;19;20014;-80
2022/06/24 02:27:12;;;;;;;2.42;2.28;;;23.10;37.80;;;21.00;39.94;100757.47;12245743;19;20491;-80
2022/06/24 02:31:15;;;;;;;2.08;1.88;;;22.90;37.90;;;21.03;40.01;100767.78;12245075;19;20082;-80
2022/06/24 02:35:17;;;;;;;1.67;1.58;;;22.80;38.00;;;20.90;39.82;100749.59;12246807;19;20010;-80
2022/06/24 02:39:19;;;;;;;3.90;2.17;;;22.80;38.00;;;21.07;40.04;100782.44;12248008;19;20077;-80
2022/06/24 02:43:29;;;;;;;2.17;1.77;;;22.80;38.10;;;20.91;40.27;100753.91;12247120;19;20018;-80
2022/06/24 02:47:31;;;;;;;2.38;2.17;;;22.80;38.30;;;20.78;40.22;100748.13;12248962;19;20093;-80
2022/06/24 02:51:33;;;;;;;3.00;1.70;;;22.70;38.30;;;20.92;40.24;100784.75;12243197;19;20018;-80
2022/06/24 02:55:36;;;;;;;1.90;1.80;;;22.70;38.40;;;20.85;40.69;100773.09;12248885;19;20022;-80
2022/06/24 02:59:38;;;;;;;2.70;2.20;;;22.60;38.50;;;20.87;40.73;100781.72;12237675;19;20090;-80
2022/06/24 03:03:40;;;;;;;1.95;1.85;;;22.60;38.50;;;20.68;40.36;100772.06;12246521;19;20007;-80
2022/06/24 03:07:42;;;;;;;1.75;1.65;;;22.50;38.90;;;20.54;41.05;100761.97;12244191;19;20018;-80
2022/06/24 03:11:43;;;;;;;8.30;2.40;;;22.50;38.60;;;20.48;40.58;100773.16;12242658;19;20050;-80
2022/06/24 03:15:45;;;;;;;2.38;2.03;;;22.40;38.50;;;20.42;40.93;100768.44;12244176;19;20018;-80
2022/06/24 03:19:47;;;;;;;2.97;2.00;;;22.40;38.70;;;20.41;40.96;100780.00;12242064;19;20038;-80
2022/06/24 03:23:48;;;;;;;1.95;1.85;;;22.40;38.90;;;20.19;41.02;100752.06;12243525;19;20085;-80
2022/06/24 03:27:50;;;;;;;2.10;1.98;;;22.20;39.00;;;20.21;41.03;100774.81;12244622;19;20015;-80
2022/06/24 03:31:52;;;;;;;1.88;1.77;;;22.50;39.20;;;19.91;41.41;100727.34;12242496;19;20100;-80
2022/06/24 03:35:54;;;;;;;2.40;2.20;;;22.10;39.20;;;20.13;41.39;100768.56;12240630;19;20037;-80
2022/06/24 03:39:57;;;;;;;2.35;2.15;;;22.00;39.30;;;19.97;41.58;100747.97;12240656;19;20018;-80
2022/06/24 03:44:00;;;;;;;2.53;2.33;;;22.30;39.60;;;20.13;41.92;100769.41;12240536;19;20375;-80
2022/06/24 03:48:02;;;;;;;2.58;2.38;;;22.00;39.50;;;20.10;41.87;100777.66;12242007;19;20022;-80
2022/06/24 03:52:04;;;;;;;2.40;2.20;;;22.00;39.60;;;20.01;41.82;100754.63;12239925;19;20027;-80
2022/06/24 03:56:09;;;;;;;3.65;2.40;;;21.90;39.80;;;20.03;42.12;100752.69;12240436;19;20014;-80
2022/06/24 04:00:11;;;;;;;3.15;2.13;;;21.80;40.00;;;20.17;41.78;100777.88;12233752;19;20010;-80
2022/06/24 04:04:13;;;;;;;2.30;2.10;;;21.90;40.00;;;19.97;42.26;100735.53;12240160;19;20110;-80
2022/06/24 04:08:15;;;;;;;2.47;2.22;;;21.90;40.10;;;19.96;42.11;100720.63;12227753;19;20015;-80
2022/06/24 04:12:17;;;;;;;2.88;2.67;;;21.90;40.10;;;20.15;42.56;100754.19;12239043;19;20038;-80
2022/06/24 04:16:20;;;;;;;2.83;2.28;;;21.90;40.30;;;20.26;42.35;100775.19;12239914;19;20411;-80
2022/06/24 04:20:22;;;;;;;2.55;2.35;;;22.00;40.50;;;20.31;42.61;100774.78;12239150;19;20468;-80
2022/06/24 04:24:24;;;;;;;2.20;1.92;;;22.00;40.60;;;20.23;42.31;100753.47;12239372;19;20427;-80
2022/06/24 04:28:26;;;;;;;2.10;1.92;;;22.00;40.50;;;20.04;42.37;100714.59;12241252;19;20015;-80
2022/06/24 04:32:28;;;;;;;3.10;2.17;;;22.00;40.60;;;20.43;42.49;100768.28;12234027;19;20014;-80
2022/06/24 04:36:29;;;;;;;2.53;2.22;;;22.10;40.70;;;20.40;42.62;100738.56;12230742;19;20014;-80
2022/06/24 04:40:31;;;;;;;11.05;2.60;;;22.40;40.60;;;20.65;42.50;100761.75;12228591;19;20034;-80
2022/06/24 04:44:33;;;;;;;2.00;1.77;;;22.40;40.80;;;20.72;42.42;100746.91;12235170;19;20382;-80
2022/06/24 04:48:36;;;;;;;2.90;2.47;;;22.30;40.50;;;20.73;42.48;100722.03;12232596;19;20019;-80
2022/06/24 04:52:39;;;;;;;3.08;2.35;;;22.50;40.70;;;21.05;42.67;100739.25;12232371;19;20055;-80
2022/06/24 04:56:41;;;;;;;6.18;2.08;;;22.90;40.60;;;21.35;42.38;100756.59;12231189;19;20014;-80
2022/06/24 05:00:43;;;;;;;4.05;2.13;;;22.80;40.50;;;21.59;42.26;100765.78;12232252;19;20029;-80
2022/06/24 05:04:44;;;;;;;3.78;2.28;;;22.90;40.60;;;21.70;42.15;100746.09;12234916;19;20015;-80
2022/06/24 05:08:47;;;;;;;2.63;2.42;;;23.10;40.30;;;21.96;42.45;100757.56;12233202;19;20053;-80
2022/06/24 05:12:49;;;;;;;2.35;2.10;;;23.30;40.30;;;22.23;42.19;100771.69;12232666;19;20025;-80
2022/06/24 05:16:51;;;;;;;2.25;2.05;;;23.70;40.20;;;22.43;42.05;100770.41;12232345;19;20035;-81
2022/06/24 05:20:52;;;;;;;2.10;1.90;;;23.70;40.00;;;22.43;42.14;100735.81;12232020;19;20657;-79
2022/06/24 05:24:54;;;;;;;2.10;1.90;;;23.90;39.90;;;22.55;41.61;100720.41;12231756;19;20007;-81
2022/06/24 05:28:56;;;;;;;3.47;2.00;;;24.10;39.70;;;22.89;41.79;100733.59;12213997;19;20018;-80
2022/06/24 05:32:58;;;;;;;3.13;2.08;;;24.60;39.60;;;23.25;41.49;100751.13;12223092;19;20086;-79
2022/06/24 05:37:00;;;;;;;5.28;2.22;;;24.60;39.60;;;23.42;41.59;100740.28;12229079;19;20480;-80
2022/06/24 05:41:03;;;;;;;1.88;1.70;;;24.70;39.40;;;23.77;41.42;100746.25;12228611;19;20704;-79
2022/06/24 05:45:06;;;;;;;2.17;1.98;;;25.00;39.40;;;23.89;41.39;100724.56;12227697;19;20428;-82
2022/06/24 05:49:08;;;;;;;2.10;1.80;;;25.20;39.20;;;24.27;40.81;100737.06;12233665;19;20019;-80
2022/06/24 05:57:30;;;;;;;6.72;1.73;;;25.70;38.90;;;24.88;40.58;100739.94;12242913;19;20041;-82
2022/06/24 06:01:32;;;;;;;2.40;1.65;;;26.00;38.70;;;25.09;40.35;100723.25;12237703;19;20056;-84
2022/06/24 06:05:33;;;;;;;3.63;2.72;;;26.30;38.40;;;25.12;39.88;100682.78;12242523;19;20048;-79
2022/06/24 06:09:35;;;;;;;3.83;1.92;;;26.50;37.80;;;25.59;39.37;100723.63;12239371;19;20082;-81
2022/06/24 06:13:37;;;;;;;2.65;2.20;;;26.80;37.70;;;25.74;39.22;100713.78;12239725;19;20045;-80
2022/06/24 06:17:38;;;;;;;1.95;1.70;;;27.00;37.60;;;25.80;39.52;100682.78;12243870;19;20551;-81
2022/06/24 06:21:40;;;;;;;3.00;1.92;;;27.20;37.40;;;26.24;38.82;100714.03;12226296;19;20006;-80
2022/06/24 06:25:42;;;;;;;3.28;2.00;;;27.40;37.10;;;26.42;39.14;100700.25;12242018;19;20025;-79
2022/06/24 06:29:44;;;;;;;2.83;2.10;;;27.70;37.00;;;26.65;38.80;100706.31;12238827;19;20014;-82
2022/06/24 06:33:46;;;;;;;2.65;1.80;;;28.10;37.10;;;26.89;38.53;100720.31;12240253;19;20081;-80
2022/06/24 06:37:47;;;;;;;2.92;2.03;;;28.20;36.60;;;27.02;38.45;100704.38;12232411;19;20007;-79
2022/06/24 06:41:49;;;;;;;1.98;1.67;;;28.30;36.50;;;27.15;37.83;100696.44;12239168;19;20014;-82
2022/06/24 06:45:52;;;;;;;2.60;1.90;;;28.50;36.50;;;27.44;38.33;100704.53;12240409;19;20022;-81
2022/06/24 06:49:53;;;;;;;4.38;2.40;;;28.70;36.30;;;27.54;37.93;100688.88;12229505;19;20376;-80
2022/06/24 06:53:55;;;;;;;1.88;1.77;;;28.90;36.00;;;27.64;37.21;100667.91;12227418;19;20577;-81
2022/06/24 06:57:57;;;;;;;3.92;2.00;;;29.20;35.70;;;27.86;37.37;100673.19;12233398;19;20090;-80
2022/06/24 07:01:59;;;;;;;3.13;2.60;;;29.30;35.60;;;28.24;36.92;100700.41;12235654;19;20007;-81
2022/06/24 07:06:01;;;;;;;2.10;1.90;;;29.50;35.30;;;28.18;36.81;100660.94;12239134;19;20230;-81
2022/06/24 07:10:03;;;;;;;2.40;1.95;;;29.60;35.30;;;28.48;36.52;100660.63;12238287;19;20014;-81
2022/06/24 07:14:05;;;;;;;3.80;1.90;;;29.80;35.10;;;28.73;36.38;100674.28;12238018;19;20014;-81
2022/06/24 07:18:07;;;;;;;2.30;2.10;;;30.00;34.80;;;28.94;36.17;100668.72;12239956;19;20039;-81
2022/06/24 07:22:09;;;;;;;2.85;1.83;;;30.20;34.90;;;28.99;35.87;100650.09;12238388;19;20353;-81
2022/06/24 07:26:11;;;;;;;1.95;1.80;;;30.30;34.60;;;29.20;35.78;100654.47;12240485;19;20018;-81
2022/06/24 07:30:13;;;;;;;1.60;1.50;;;30.50;34.30;;;29.34;35.81;100652.56;12237958;19;20018;-81
2022/06/24 07:34:16;;;;;;;2.03;1.92;;;30.60;34.40;;;29.50;35.46;100649.44;12240737;19;20492;-81
2022/06/24 07:38:18;;;;;;;1.95;1.80;;;30.80;34.30;;;29.62;35.16;100643.38;12236075;19;20034;-81
2022/06/24 07:42:20;;;;;;;2.35;2.15;;;30.90;33.90;;;29.64;35.05;100634.09;12238744;19;20484;-81
2022/06/24 07:46:22;;;;;;;2.75;1.90;;;31.00;33.70;;;29.55;34.76;100606.56;12235106;19;20472;-81
2022/06/24 07:50:23;;;;;;;2.47;1.70;;;31.10;33.50;;;29.89;34.64;100634.19;12236867;19;20460;-81
2022/06/24 07:54:25;;;;;;;2.53;1.80;;;31.30;33.60;;;30.05;34.65;100646.34;12237037;19;20023;-81
2022/06/24 07:58:27;;;;;;;2.40;2.10;;;31.30;33.40;;;30.12;34.15;100654.41;12237014;19;20029;-80
2022/06/24 08:02:28;;;;;;;4.55;1.48;;;31.40;33.40;;;30.16;34.09;100644.84;12236734;19;20018;-82
2022/06/24 08:06:30;;;;;;;4.60;2.30;;;31.50;33.30;;;30.10;33.91;100603.44;12236689;19;20027;-80
2022/06/24 08:10:32;;;;;;;2.03;1.83;;;31.60;33.20;;;30.25;33.83;100605.88;12233262;19;20365;-81
2022/06/24 08:14:34;;;;;;;1.90;1.80;;;31.70;33.10;;;30.44;33.56;100625.63;12235167;19;20499;-81
2022/06/24 08:18:36;;;;;;;2.15;1.65;;;31.70;32.70;;;30.43;33.92;100608.66;12236855;19;20042;-81
2022/06/24 08:22:38;;;;;;;1.70;1.60;;;31.80;32.80;;;30.58;33.24;100597.53;12234222;19;20023;-81
2022/06/24 08:26:40;;;;;;;2.60;1.80;;;31.90;32.70;;;30.73;32.98;100594.53;12236196;19;20050;-80
2022/06/24 08:30:41;;;;;;;2.35;1.50;;;32.10;32.30;;;30.86;32.93;100589.00;12233309;19;20107;-81
2022/06/24 08:34:43;;;;;;;1.80;1.70;;;32.20;32.40;;;31.04;32.71;100600.88;12236940;19;20025;-80
2022/06/24 08:38:46;;;;;;;1.83;1.63;;;32.30;32.00;;;31.11;32.30;100590.88;12235762;19;20046;-81
2022/06/24 08:42:53;;;;;;;1.77;1.60;;;32.40;32.10;;;31.27;31.76;100597.53;12234397;19;20050;-80
2022/06/24 08:46:55;;;;;;;2.58;1.90;;;32.50;31.60;;;31.36;32.17;100589.97;12235541;19;20093;-80
2022/06/24 08:50:58;;;;;;;2.75;1.70;;;32.70;31.70;;;31.22;31.55;100543.44;12231677;19;20776;-81
2022/06/24 08:55:03;;;;;;;1.95;1.80;;;32.80;31.40;;;31.40;31.33;100570.41;12226883;19;20096;-78
2022/06/24 08:59:05;;;;;;;2.10;1.38;;;32.80;30.80;;;31.52;31.40;100575.91;12232389;19;20025;-81
2022/06/24 09:03:07;;;;;;;2.35;1.60;;;32.80;31.10;;;31.36;30.78;100534.13;12231267;19;20022;-81
2022/06/24 09:07:25;;;;;;;1.50;1.40;;;32.90;30.60;;;31.67;30.72;100560.09;12230824;19;20014;-81
2022/06/24 09:11:37;;;;;;;1.80;1.70;;;33.00;30.80;;;31.69;30.65;100544.50;12230872;19;20343;-80
2022/06/24 09:15:41;;;;;;;1.75;1.65;;;33.00;30.60;;;31.79;30.89;100551.25;12229082;19;20015;-80
2022/06/24 09:19:43;;;;;;;2.63;1.80;;;33.10;31.00;;;31.91;30.43;100544.81;12233365;19;20026;-80
2022/06/24 09:23:57;;;;;;;3.10;1.67;;;33.20;30.90;;;32.06;30.17;100540.91;12237507;19;20010;-81
2022/06/24 09:27:58;;;;;;;1.90;1.73;;;33.30;31.00;;;32.19;30.58;100546.13;12244586;19;20018;-81
2022/06/24 09:32:05;;;;;;;2.17;1.77;;;33.40;31.30;;;32.28;30.05;100533.06;12239944;19;20043;-80
2022/06/24 09:36:09;;;;;;;1.65;1.55;;;33.50;30.60;;;32.24;29.63;100521.06;12245356;19;20011;-80
2022/06/24 09:40:19;;;;;;;3.73;1.40;;;33.60;30.20;;;32.46;29.89;100532.97;12241227;19;20405;-80
2022/06/24 09:44:21;;;;;;;1.77;1.25;;;33.70;30.20;;;32.53;29.70;100533.69;12247602;19;20021;-84
2022/06/24 09:48:32;;;;;;;1.90;1.63;;;33.70;30.20;;;32.64;29.23;100525.84;12243158;19;20023;-82
2022/06/24 09:52:34;;;;;;;1.95;1.60;;;33.80;30.10;;;32.66;29.28;100516.44;12242646;19;20018;-81
2022/06/24 09:56:39;;;;;;;2.15;1.60;;;33.90;30.00;;;32.66;28.73;100507.50;12241948;19;20019;-80
2022/06/24 10:00:41;;;;;;;1.90;1.30;;;34.00;29.70;;;32.64;28.50;100496.09;12240944;19;20480;-81
2022/06/24 10:04:50;;;;;;;1.48;1.38;;;34.10;29.60;;;32.70;28.14;100508.66;12243776;19;20350;-81
2022/06/24 10:08:52;;;;;;;1.50;1.40;;;34.10;29.30;;;32.78;28.69;100511.84;12239628;19;20018;-80
2022/06/24 10:13:06;;;;;;;2.40;1.20;;;34.10;29.50;;;32.74;28.23;100499.03;12238501;19;20048;-81
2022/06/24 10:17:08;;;;;;;1.75;1.55;;;34.10;29.50;;;32.87;28.43;100501.47;12241850;19;20014;-81
2022/06/24 10:21:12;;;;;;;1.30;1.20;;;34.10;29.70;;;32.89;28.03;100491.22;12238781;19;20023;-80
2022/06/24 10:25:21;;;;;;;1.73;1.50;;;34.20;29.80;;;32.97;28.11;100471.09;12240012;19;20025;-81
2022/06/24 10:29:28;;;;;;;2.63;1.52;;;34.20;29.80;;;33.06;28.00;100464.28;12241547;19;20024;-81
2022/06/24 10:33:30;;;;;;;1.42;1.33;;;34.30;29.90;;;33.13;28.45;100458.72;12240068;19;20476;-81
2022/06/24 10:37:33;;;;;;;2.13;1.55;;;34.40;29.90;;;33.32;27.89;100479.13;12241978;19;20407;-81
2022/06/24 10:41:41;;;;;;;1.60;1.27;;;34.50;29.70;;;33.37;27.71;100467.59;12237952;19;20015;-81
2022/06/24 10:45:43;;;;;;;1.63;1.52;;;34.60;29.50;;;33.44;27.87;100471.78;12241804;19;20021;-81
2022/06/24 10:49:51;;;;;;;4.68;1.90;;;34.70;29.50;;;33.48;27.78;100466.69;12236037;19;20636;-81
2022/06/24 10:54:01;;;;;;;1.60;1.50;;;34.70;29.60;;;33.57;27.85;100465.28;12242811;19;20223;-80
2022/06/24 10:58:13;;;;;;;2.22;1.65;;;34.70;29.60;;;33.34;27.43;100428.28;12238798;19;20021;-80
2022/06/24 11:02:19;;;;;;;3.85;1.60;;;34.80;29.60;;;33.57;27.94;100443.63;12243232;19;20053;-80
2022/06/24 11:06:20;;;;;;;1.77;1.60;;;34.80;29.70;;;33.66;27.45;100436.72;12241497;19;20010;-81
2022/06/24 11:10:26;;;;;;;1.75;1.65;;;34.90;29.40;;;33.62;27.25;100421.22;12237117;19;20010;-81
2022/06/24 11:14:28;;;;;;;1.50;1.40;;;34.90;29.10;;;33.62;27.18;100413.09;12241937;19;20022;-81
2022/06/24 11:18:33;;;;;;;2.78;1.90;;;34.90;29.60;;;33.76;27.23;100408.19;12235022;19;20021;-81
2022/06/24 11:22:47;;;;;;;1.58;1.48;;;34.90;29.30;;;33.83;27.13;100406.13;12240377;19;20022;-81
2022/06/24 11:27:09;;;;;;;2.30;2.10;;;35.00;29.30;;;33.82;27.01;100402.59;12240703;19;20049;-81
2022/06/24 11:31:29;;;;;;;2.60;2.15;;;35.00;29.40;;;33.92;26.94;100413.59;12235143;19;20502;-81
2022/06/24 11:35:31;;;;;;;1.52;1.40;;;35.10;29.10;;;33.65;27.43;100366.56;12240403;19;20033;-80
2022/06/24 11:39:33;;;;;;;6.22;1.83;;;35.10;29.30;;;34.00;26.57;100401.53;12235239;19;20017;-80
2022/06/24 11:43:35;;;;;;;3.95;2.17;;;35.10;29.00;;;33.91;26.41;100387.56;12237337;19;20039;-80
2022/06/24 11:47:36;;;;;;;2.17;1.52;;;35.20;28.80;;;33.81;26.63;100383.88;12238950;19;20018;-80
2022/06/24 11:51:45;;;;;;;1.90;1.80;;;35.20;29.20;;;33.85;26.17;100390.44;12232192;19;20721;-80
2022/06/24 11:55:52;;;;;;;2.75;1.88;;;35.20;29.20;;;33.70;26.64;100382.88;12237972;19;20403;-80
2022/06/24 11:59:58;;;;;;;1.60;1.50;;;35.10;28.90;;;33.67;26.44;100384.19;12233952;19;20528;-80
2022/06/24 12:04:08;;;;;;;1.67;1.58;;;35.00;29.00;;;33.65;26.76;100380.13;12239380;19;20358;-80
2022/06/24 12:08:11;;;;;;;1.70;1.60;;;35.00;29.20;;;33.62;26.78;100375.16;12236342;19;20022;-80
2022/06/24 12:12:14;;;;;;;1.75;1.65;;;35.00;29.10;;;33.50;26.66;100346.25;12236907;19;20022;-80
2022/06/24 12:16:15;;;;;;;1.80;1.70;;;34.90;28.90;;;33.79;26.74;100381.41;12238134;19;20053;-79
2022/06/24 12:20:25;;;;;;;2.58;1.50;;;34.90;29.30;;;33.88;26.69;100366.38;12233829;19;20413;-80
2022/06/24 12:24:27;;;;;;;2.22;1.90;;;35.00;29.10;;;33.89;26.12;100346.38;12237104;19;20101;-80
2022/06/24 12:28:28;;;;;;;17.98;2.45;;;35.00;29.00;;;33.90;26.35;100330.91;12235415;19;20146;-80
2022/06/24 12:33:12;;;;;;;4.45;1.90;;;35.10;29.00;;;34.23;25.99;100354.44;12234471;19;20048;-81
2022/06/24 12:37:18;;;;;;;1.40;1.35;;;35.20;29.00;;;34.17;26.09;100331.06;12234525;19;20014;-79
2022/06/24 12:41:21;;;;;;;1.98;1.70;;;35.30;28.60;;;34.30;25.47;100327.16;12232133;19;20010;-79
2022/06/24 12:45:24;;;;;;;1.60;1.20;;;35.40;28.30;;;34.10;25.73;100301.41;12232575;19;20475;-80
2022/06/24 12:53:49;;;;;;;1.67;1.55;;;35.50;28.10;;;34.35;24.94;100330.75;12232002;19;20011;-81
2022/06/24 12:57:51;;;;;;;2.75;1.20;;;35.60;27.90;;;34.34;25.09;100334.50;12231366;19;20014;-82
2022/06/24 13:01:52;;;;;;;1.30;1.20;;;35.60;28.00;;;34.31;24.99;100323.38;12231205;19;20100;-82
2022/06/24 13:05:54;;;;;;;2.45;1.30;;;35.60;27.80;;;34.39;24.84;100313.97;12230860;19;20031;-82
2022/06/24 13:09:56;;;;;;;2.42;1.38;;;35.60;28.00;;;34.49;24.76;100308.69;12233682;19;20031;-81
2022/06/24 13:13:58;;;;;;;2.40;1.33;;;35.60;27.80;;;34.63;24.96;100303.72;12232275;19;20344;-81
2022/06/24 13:18:00;;;;;;;2.10;1.50;;;35.70;28.20;;;34.83;24.45;100316.66;12234031;19;20018;-81
2022/06/24 13:22:02;;;;;;;2.13;1.50;;;35.80;28.10;;;34.62;24.57;100269.50;12234733;19;20035;-80
2022/06/24 13:26:04;;;;;;;1.58;1.30;;;35.90;28.10;;;34.81;24.96;100311.50;12231237;19;20046;-82
2022/06/24 13:30:08;;;;;;;2.15;1.88;;;35.90;28.10;;;34.74;24.20;100303.56;12231641;19;20028;-82
2022/06/24 13:34:10;;;;;;;3.30;1.88;;;36.00;27.90;;;34.62;24.75;100296.63;12231956;19;20026;-82
2022/06/24 13:38:12;;;;;;;2.88;1.40;;;36.00;28.00;;;34.63;24.44;100298.28;12233104;19;20018;-82
2022/06/24 13:42:13;;;;;;;1.50;1.40;;;35.90;28.10;;;34.57;24.43;100292.00;12231626;19;20471;-81
2022/06/24 13:46:15;;;;;;;3.17;1.63;;;35.80;28.10;;;34.53;24.58;100305.19;12231307;19;20033;-81
2022/06/24 13:50:16;;;;;;;1.50;1.40;;;35.90;28.20;;;34.50;24.86;100297.56;12227680;19;20025;-82
2022/06/24 13:54:18;;;;;;;1.27;1.27;;;35.80;28.20;;;34.49;24.70;100303.25;12232553;19;20050;-81
2022/06/24 13:58:20;;;;;;;6.30;1.90;;;35.70;28.00;;;34.40;24.58;100278.44;12229629;19;20508;-82
2022/06/24 14:02:22;;;;;;;1.50;1.40;;;35.80;27.90;;;34.50;24.44;100284.00;12233961;19;20018;-83
2022/06/24 14:06:24;;;;;;;1.30;1.20;;;35.70;27.70;;;34.56;24.37;100263.19;12229665;19;20018;-81
2022/06/24 14:10:26;;;;;;;3.90;1.70;;;35.80;27.80;;;34.72;24.24;100280.47;12237292;19;20014;-81
2022/06/24 14:14:28;;;;;;;3.85;1.30;;;35.80;27.80;;;34.67;24.13;100262.22;12241530;19;20011;-81
2022/06/24 14:18:29;;;;;;;1.77;1.50;;;35.80;27.70;;;34.74;24.02;100276.41;12244648;19;20014;-81
2022/06/24 14:22:31;;;;;;;2.33;1.15;;;35.90;27.60;;;34.65;23.78;100253.56;12243751;19;20047;-81
2022/06/24 14:26:33;;;;;;;1.30;1.23;;;35.90;27.60;;;34.63;24.00;100263.03;12243131;19;20022;-81
2022/06/24 14:30:35;;;;;;;1.83;1.40;;;36.10;27.70;;;34.54;23.66;100251.75;12242516;19;20010;-81
2022/06/24 14:34:36;;;;;;;1.73;1.60;;;35.80;27.40;;;34.39;23.85;100246.19;12241579;19;20022;-81
2022/06/24 14:43:01;;;;;;;1.98;1.40;;;35.70;27.40;;;34.41;23.59;100223.16;12241067;19;20014;-81
2022/06/24 14:47:05;;;;;;;1.10;1.10;;;35.80;27.30;;;34.51;23.56;100236.84;12243269;19;20006;-80
2022/06/24 14:51:07;;;;;;;3.28;1.30;;;35.60;27.30;;;34.36;23.53;100204.94;12238166;19;20018;-80
2022/06/24 14:55:09;;;;;;;3.92;1.25;;;35.70;27.50;;;34.51;23.81;100219.72;12242194;19;20014;-81
2022/06/24 14:59:11;;;;;;;1.05;0.95;;;35.60;27.50;;;34.50;23.58;100207.25;12237716;19;20458;-81
2022/06/24 15:03:13;;;;;;;1.10;1.00;;;35.70;27.60;;;34.53;23.90;100198.59;12239699;19;20035;-80
2022/06/24 15:07:14;;;;;;;1.60;1.23;;;35.60;27.50;;;34.64;23.94;100208.50;12240865;19;20046;-81
2022/06/24 15:11:16;;;;;;;2.72;1.55;;;35.80;27.50;;;34.65;23.48;100196.59;12235777;19;20039;-80
2022/06/24 15:15:18;;;;;;;1.70;1.20;;;35.70;27.50;;;34.51;23.87;100169.03;12239894;19;20018;-81
2022/06/24 15:19:20;;;;;;;1.20;1.00;;;35.80;27.60;;;34.72;23.46;100189.03;12235372;19;20006;-80
2022/06/24 15:23:21;;;;;;;2.45;1.02;;;35.90;27.10;;;34.70;23.16;100177.66;12240485;19;20019;-81
2022/06/24 15:27:23;;;;;;;1.27;1.17;;;36.00;27.20;;;34.66;22.92;100173.81;12239126;19;20042;-81
2022/06/24 15:31:25;;;;;;;0.77;0.75;;;35.90;27.20;;;34.61;23.36;100165.63;12237908;19;20026;-81
2022/06/24 15:35:28;;;;;;;1.17;1.08;;;35.80;27.20;;;34.69;23.16;100181.41;12238282;19;20014;-81
2022/06/24 15:39:30;;;;;;;1.55;1.45;;;35.90;27.00;;;34.53;22.82;100187.75;12241148;19;20375;-81
2022/06/24 15:43:31;;;;;;;1.50;1.40;;;35.80;27.00;;;34.44;23.42;100208.28;12240930;19;20697;-80
2022/06/24 15:47:33;;;;;;;1.70;1.60;;;35.80;28.00;;;34.14;23.93;100177.88;12236421;19;20018;-81
2022/06/24 15:51:35;;;;;;;2.55;1.90;;;35.70;28.20;;;34.17;24.65;100224.53;12236916;19;20030;-80
2022/06/24 15:55:36;;;;;;;2.05;1.95;;;35.50;28.50;;;33.78;24.45;100206.38;12236510;19;20050;-80
2022/06/24 15:59:38;;;;;;;2.92;2.00;;;35.40;28.80;;;33.65;25.40;100213.00;12237276;19;20018;-81
2022/06/24 16:03:39;;;;;;;2.20;2.10;;;35.20;29.10;;;33.76;25.52;100253.78;12218860;19;20078;-80
2022/06/24 16:07:41;;;;;;;2.65;2.45;;;35.10;29.40;;;33.60;25.87;100250.84;12237766;19;20030;-80
2022/06/24 16:16:04;;;;;;;4.60;2.80;;;34.90;29.70;;;33.05;26.28;100219.09;12236268;19;20384;-81
2022/06/24 16:20:06;;;;;;;3.65;2.38;;;34.70;29.80;;;33.02;26.65;100223.09;12231413;19;20021;-81
2022/06/24 16:24:08;;;;;;;2.50;2.30;;;34.50;29.90;;;32.99;26.54;100228.16;12237390;19;20018;-80
2022/06/24 16:32:30;;;;;;;2.40;2.20;;;34.40;30.00;;;32.87;26.58;100232.84;12215823;19;20014;-81
2022/06/24 16:36:32;;;;;;;2.53;2.22;;;34.10;30.20;;;32.79;27.25;100234.06;12220480;19;20027;-81
2022/06/24 16:40:34;;;;;;;2.70;2.22;;;34.20;30.40;;;32.75;27.53;100257.25;12217785;19;20761;-81
2022/06/24 16:44:35;;;;;;;2.53;2.22;;;34.00;30.50;;;32.48;27.56;100240.78;12223988;19;20023;-80
2022/06/24 16:48:40;;;;;;;2.60;2.40;;;33.90;30.60;;;32.52;27.68;100274.41;12212932;19;20014;-81
2022/06/24 16:52:42;;;;;;;2.65;2.40;;;33.80;30.60;;;32.32;27.84;100270.19;12214162;19;20066;-80
2022/06/24 16:56:46;;;;;;;6.93;2.63;;;33.80;31.20;;;32.35;28.30;100306.72;12232267;19;20019;-81
2022/06/24 17:00:48;;;;;;;2.97;2.25;;;33.70;31.20;;;32.25;28.47;100312.75;12212731;19;20519;-81
2022/06/24 17:04:50;;;;;;;3.63;2.17;;;33.60;31.30;;;32.26;28.61;100332.47;12236793;19;20044;-81